Terminal Aerodrome Forecast
Issued by NWS

Home | Current Version | Previous Version | Text Only | Print | Product List | Glossary On
Versions: 1 2 3 4 5 6 7 8 9 10 11 12 13 14 15 16 17 18 19 20 21 22 23 24 25 26 27 28 29 30
000
FTUS44 KLIX 050500
TAFHDC
TAF
KHDC 050521Z 0506/0606 19005KT 5SM BR VCSH BKN015
      TEMPO 0506/0509 2SM BR
     FM050900 27008KT 3SM -SHRA BKN003
     FM051100 33011KT 3SM -SHRA OVC003
     FM051500 35014KT P6SM OVC008
     FM060000 36013KT P6SM OVC015
     FM060300 01011KT P6SM BKN090=

USA.gov is the U.S. government's official web portal to all federal, state and local government web resources and services.